Mount Eaton, Ohio
Current Conditions -  °F | °C
As of 12:18 PM on Friday 28 Nov 2014 (Local Time) from KBJJ Reporting Station
Overcast Overcast  
Wind Chill: 17°   Ceiling: 9500
Heat Index: 25°   Visibility: 10mi
Dew Point: 16°   Wind: 7mph
Humidity: 69%   Direction: 250°WSW
Pressure: 30.29"   Gusts: NA
Location:  40.69°N, 81.7°W
Report Text: KBJJ 281718Z AUTO 25006KT 10SM SCT024 OVC095 M04/M09 A3029 RMK AO2 T10391089 TSNO
Loading
Personal Weather Stations






























Interactive Weather Map New forecast layout! Learn more

10-Day Weather Forecast

Advertisements
Track Severe Weather on mobile